createdAt,value
2022-12-08T00:00:09.955Z,43.50
2022-12-08T00:05:30.509Z,43.50
2022-12-08T00:10:48.912Z,43.60
2022-12-08T00:15:54.051Z,43.70
2022-12-08T00:20:57.413Z,43.60
2022-12-08T00:26:04.312Z,43.40
2022-12-08T00:31:12.459Z,43.40
2022-12-08T00:36:16.129Z,43.40
2022-12-08T00:41:41.379Z,43.60
2022-12-08T00:46:46.426Z,43.70
2022-12-08T00:51:49.669Z,43.40
2022-12-08T00:56:53.118Z,43.40
2022-12-08T01:01:57.771Z,43.60
2022-12-08T01:07:00.856Z,43.60
2022-12-08T01:12:03.987Z,43.40
2022-12-08T01:17:08.604Z,43.30
2022-12-08T01:22:11.796Z,42.90
2022-12-08T01:27:16.743Z,43.00
2022-12-08T01:32:21.227Z,43.00
2022-12-08T01:37:24.393Z,42.60
2022-12-08T01:42:27.571Z,42.60
2022-12-08T01:47:37.533Z,42.70
2022-12-08T01:52:43.619Z,42.70
2022-12-08T01:57:49.257Z,42.90
2022-12-08T02:02:59.395Z,42.80
2022-12-08T02:08:06.822Z,42.50
2022-12-08T02:13:17.923Z,42.60
2022-12-08T02:18:39.653Z,42.70
2022-12-08T02:23:50.924Z,42.50
2022-12-08T02:29:20.082Z,42.50
2022-12-08T02:34:31.000Z,42.40
2022-12-08T02:39:43.214Z,42.40
2022-12-08T02:44:52.947Z,42.40
2022-12-08T02:49:58.351Z,42.60
2022-12-08T02:55:07.462Z,42.50
2022-12-08T03:00:15.109Z,42.30
2022-12-08T03:05:39.149Z,42.40
2022-12-08T03:10:48.123Z,42.00
2022-12-08T03:15:53.862Z,42.30
2022-12-08T03:20:58.769Z,42.50
2022-12-08T03:26:08.259Z,42.50
2022-12-08T03:31:15.076Z,43.20
2022-12-08T03:36:20.879Z,42.50
2022-12-08T03:41:24.455Z,42.40
2022-12-08T03:51:33.292Z,42.10
2022-12-08T03:56:38.952Z,42.40
2022-12-08T04:01:42.179Z,42.60
2022-12-08T04:06:47.250Z,42.90
2022-12-08T04:11:50.457Z,42.90
2022-12-08T04:16:53.584Z,42.80
2022-12-08T04:21:58.098Z,43.20
2022-12-08T04:27:01.289Z,43.60
2022-12-08T04:32:04.671Z,43.70
2022-12-08T04:37:09.329Z,43.80
2022-12-08T04:42:12.420Z,43.70
2022-12-08T04:47:15.700Z,43.60
2022-12-08T04:52:20.285Z,43.60
2022-12-08T04:57:23.389Z,43.70
2022-12-08T05:02:26.969Z,43.60
2022-12-08T05:07:31.623Z,43.70
2022-12-08T05:12:35.039Z,43.70
2022-12-08T05:17:38.246Z,43.80
2022-12-08T05:22:43.068Z,43.40
2022-12-08T05:27:46.318Z,43.60
2022-12-08T05:32:49.436Z,43.60
2022-12-08T05:37:54.354Z,43.70
2022-12-08T05:42:57.496Z,43.80
2022-12-08T05:48:00.847Z,43.80
2022-12-08T05:53:05.597Z,43.80
2022-12-08T05:58:14.943Z,43.90
2022-12-08T06:03:20.139Z,43.80
2022-12-08T06:08:24.883Z,43.70
2022-12-08T06:13:28.029Z,43.60
2022-12-08T06:18:32.868Z,43.50
2022-12-08T06:23:37.839Z,43.20
2022-12-08T06:28:42.940Z,44.90
2022-12-08T06:33:46.939Z,45.00
2022-12-08T06:38:51.850Z,44.00
2022-12-08T06:43:57.547Z,43.50
2022-12-08T06:49:08.273Z,43.20
2022-12-08T06:54:12.847Z,43.20
2022-12-08T06:59:17.590Z,43.10
2022-12-08T07:04:20.760Z,43.20
2022-12-08T07:09:25.379Z,43.10
2022-12-08T07:14:30.705Z,43.10
2022-12-08T07:19:34.437Z,43.10
2022-12-08T07:24:39.233Z,42.80
2022-12-08T07:29:45.965Z,42.60
2022-12-08T07:34:49.208Z,42.90
2022-12-08T07:39:53.787Z,42.80
2022-12-08T07:44:56.999Z,42.80
2022-12-08T07:50:00.161Z,42.70
2022-12-08T07:55:04.983Z,42.60
2022-12-08T08:00:09.583Z,42.60
2022-12-08T08:05:13.389Z,42.60
2022-12-08T08:10:18.020Z,43.00
2022-12-08T08:15:21.459Z,43.00
2022-12-08T08:20:24.781Z,43.20
2022-12-08T08:25:29.310Z,43.10
2022-12-08T08:30:32.477Z,43.30
2022-12-08T08:35:35.806Z,43.50
2022-12-08T08:40:40.504Z,43.50
2022-12-08T08:45:43.612Z,43.60
2022-12-08T08:50:46.671Z,43.70
2022-12-08T08:55:51.792Z,43.80
2022-12-08T09:00:54.913Z,44.10
2022-12-08T09:05:58.228Z,44.20
2022-12-08T09:11:02.777Z,44.20
2022-12-08T09:16:08.190Z,44.20
2022-12-08T09:21:15.098Z,44.10
2022-12-08T09:26:22.599Z,44.50
2022-12-08T09:31:26.729Z,44.40
2022-12-08T09:36:31.416Z,44.30
2022-12-08T09:41:44.789Z,44.10
2022-12-08T09:46:53.834Z,44.30
2022-12-08T09:51:57.244Z,44.30
2022-12-08T09:57:07.603Z,44.20
2022-12-08T10:02:21.993Z,44.60
2022-12-08T10:07:34.867Z,44.50
2022-12-08T10:12:49.504Z,45.20
2022-12-08T10:17:53.964Z,44.50
2022-12-08T10:23:06.832Z,44.90
2022-12-08T10:28:12.332Z,44.90
2022-12-08T10:33:18.325Z,44.60
2022-12-08T10:38:24.913Z,44.60
2022-12-08T10:43:29.592Z,44.60
2022-12-08T10:48:32.886Z,44.50
2022-12-08T10:53:47.394Z,44.60
2022-12-08T10:59:07.389Z,44.60
2022-12-08T11:04:18.289Z,44.50
2022-12-08T11:09:31.734Z,44.60
2022-12-08T11:14:48.782Z,44.50
2022-12-08T11:19:58.438Z,44.60
2022-12-08T11:25:04.848Z,44.50
2022-12-08T11:30:18.636Z,44.40
2022-12-08T11:35:27.431Z,44.60
2022-12-08T11:40:35.845Z,44.90
2022-12-08T11:45:42.673Z,44.70
2022-12-08T11:50:51.424Z,44.70
2022-12-08T11:55:59.493Z,44.70
2022-12-08T12:01:05.780Z,44.70
2022-12-08T12:06:46.254Z,44.60
2022-12-08T12:12:16.794Z,44.60
2022-12-08T12:17:40.907Z,44.60
2022-12-08T12:22:47.524Z,44.80
2022-12-08T12:27:58.108Z,44.50
2022-12-08T12:33:13.496Z,44.60
2022-12-08T12:38:55.143Z,44.70
2022-12-08T12:44:25.806Z,44.80
2022-12-08T12:50:06.743Z,44.80
2022-12-08T12:55:51.264Z,44.80
2022-12-08T13:01:37.838Z,44.80
2022-12-08T13:06:45.444Z,44.90
2022-12-08T13:11:52.919Z,44.80
2022-12-08T13:16:57.624Z,44.90
2022-12-08T13:22:02.846Z,44.90
2022-12-08T13:27:34.132Z,44.90
2022-12-08T13:38:26.563Z,45.50
2022-12-08T13:43:51.123Z,45.10
2022-12-08T13:55:12.256Z,44.60
2022-12-08T14:00:01.069Z,45.00
2022-12-08T14:05:26.607Z,44.80
2022-12-08T14:10:32.240Z,44.50
2022-12-08T14:15:38.598Z,44.60
2022-12-08T14:21:19.047Z,44.60
2022-12-08T14:26:08.415Z,44.60
2022-12-08T14:31:14.080Z,44.60
2022-12-08T14:36:18.070Z,44.40
2022-12-08T14:41:27.610Z,44.40
2022-12-08T14:46:31.196Z,45.00
2022-12-08T14:51:34.963Z,44.70
2022-12-08T14:56:41.716Z,44.50
2022-12-08T15:01:45.777Z,44.50
2022-12-08T15:06:54.477Z,44.50
2022-12-08T15:12:04.680Z,44.40
2022-12-08T15:17:29.482Z,45.80
2022-12-08T15:22:34.271Z,46.60
2022-12-08T15:27:50.724Z,45.60
2022-12-08T15:32:56.126Z,45.10
2022-12-08T15:37:59.956Z,44.90
2022-12-08T15:43:05.006Z,44.60
2022-12-08T15:48:08.575Z,45.40
2022-12-08T15:53:12.263Z,44.60
2022-12-08T16:09:17.918Z,44.10
2022-12-08T16:15:23.800Z,43.80
2022-12-08T16:19:50.705Z,43.90
2022-12-08T16:24:54.416Z,44.20
2022-12-08T16:30:00.116Z,44.10
2022-12-08T16:35:03.664Z,43.90
2022-12-08T16:40:08.314Z,43.90
2022-12-08T16:45:15.375Z,44.00
2022-12-08T16:50:20.898Z,44.00
2022-12-08T16:55:24.044Z,43.90
2022-12-08T17:00:30.777Z,44.10
2022-12-08T17:05:33.939Z,44.20
2022-12-08T17:10:40.550Z,44.20
2022-12-08T17:15:45.167Z,43.90
2022-12-08T17:20:48.334Z,43.90
2022-12-08T17:26:00.053Z,43.90
2022-12-08T17:31:10.511Z,44.10
2022-12-08T17:36:15.969Z,44.10
2022-12-08T17:41:19.112Z,44.00
2022-12-08T17:46:24.424Z,44.10
2022-12-08T17:51:27.635Z,44.10
2022-12-08T17:56:30.744Z,43.90
2022-12-08T18:01:35.542Z,44.10
2022-12-08T18:06:40.054Z,44.30
2022-12-08T18:11:44.530Z,44.40
2022-12-08T18:16:49.289Z,44.40
2022-12-08T18:21:52.427Z,44.00
2022-12-08T18:26:56.338Z,44.20
2022-12-08T18:32:01.086Z,44.10
2022-12-08T18:37:04.414Z,44.30
2022-12-08T18:42:22.840Z,44.00
2022-12-08T18:47:27.521Z,44.20
2022-12-08T18:52:32.362Z,44.00
2022-12-08T18:57:35.928Z,44.10
2022-12-08T19:02:40.621Z,44.40
2022-12-08T19:07:45.563Z,44.20
2022-12-08T19:12:51.030Z,44.00
2022-12-08T19:17:55.564Z,44.20
2022-12-08T19:22:58.755Z,44.00
2022-12-08T19:28:01.893Z,44.10
2022-12-08T19:33:06.538Z,43.90
2022-12-08T19:38:09.699Z,43.90
2022-12-08T19:43:37.400Z,43.90
2022-12-08T19:48:42.330Z,43.90
2022-12-08T19:53:47.855Z,43.80
2022-12-08T19:58:51.362Z,43.70
2022-12-08T20:03:55.956Z,43.70
2022-12-08T20:08:59.718Z,43.90
2022-12-08T20:14:02.929Z,43.90
2022-12-08T20:19:07.589Z,44.00
2022-12-08T20:24:10.959Z,44.20
2022-12-08T20:29:16.962Z,44.10
2022-12-08T20:34:21.614Z,44.10
2022-12-08T20:39:24.865Z,44.10
2022-12-08T20:44:29.352Z,44.20
2022-12-08T20:49:34.893Z,44.40
2022-12-08T20:54:38.601Z,44.70
2022-12-08T20:59:41.873Z,44.60
2022-12-08T21:04:46.478Z,45.10
2022-12-08T21:09:50.220Z,45.50
2022-12-08T21:14:53.480Z,45.10
2022-12-08T21:19:58.228Z,44.90
2022-12-08T21:25:01.603Z,44.70
2022-12-08T21:30:05.439Z,44.60
2022-12-08T21:35:11.480Z,44.50
2022-12-08T21:40:15.334Z,44.40
2022-12-08T21:45:20.593Z,44.40
2022-12-08T21:50:25.351Z,44.40
2022-12-08T21:55:28.673Z,44.40
2022-12-08T22:00:31.933Z,44.40
2022-12-08T22:05:36.958Z,44.50
2022-12-08T22:10:40.637Z,44.80
2022-12-08T22:15:43.948Z,44.70
2022-12-08T22:20:48.671Z,44.70
2022-12-08T22:25:58.011Z,44.60
2022-12-08T22:31:01.465Z,44.80
2022-12-08T22:36:10.971Z,44.70
2022-12-08T22:41:14.398Z,44.80
2022-12-08T22:46:19.940Z,44.90
2022-12-08T22:51:24.699Z,44.90
2022-12-08T22:56:27.912Z,44.70
2022-12-08T23:01:33.194Z,44.70
2022-12-08T23:06:37.795Z,44.50
2022-12-08T23:11:41.003Z,44.60
2022-12-08T23:16:44.144Z,44.60
2022-12-08T23:21:48.941Z,44.50
2022-12-08T23:26:52.367Z,44.60
2022-12-08T23:31:55.705Z,44.50
2022-12-08T23:37:00.546Z,44.60
2022-12-08T23:42:04.096Z,44.70
2022-12-08T23:47:07.405Z,44.50
2022-12-08T23:52:14.377Z,44.60
2022-12-08T23:57:17.671Z,44.60
